Time,TemperatureF,DewpointF,PressureIn,WindDirection,WindDirectionDegrees,WindSpeedMPH,WindSpeedGustMPH,Humidity,HourlyPrecipIn,Conditions,Clouds,dailyrainin,SoftwareType,DateUTC
2013-03-12 00:01:00,33.7,30.7,29.80,WSW,248,4.1,6.5,89,0.00,,,0.00,WUHU216HW,2013-03-12 05:01:00,
2013-03-12 00:06:00,33.7,30.7,29.80,SW,225,4.8,6.5,89,0.00,,,0.00,WUHU216HW,2013-03-12 05:06:00,
2013-03-12 00:11:00,33.7,30.7,29.80,West,264,3.6,7.8,89,0.00,,,0.00,WUHU216HW,2013-03-12 05:11:00,
2013-03-12 00:16:00,33.7,30.7,29.80,West,265,2.2,7.8,89,0.00,,,0.00,WUHU216HW,2013-03-12 05:16:00,
2013-03-12 00:21:00,33.5,30.5,29.80,WNW,293,4.1,5.9,89,0.00,,,0.00,WUHU216HW,2013-03-12 05:21:00,
2013-03-12 00:26:00,33.5,30.5,29.81,SW,222,3.5,5.9,89,0.00,,,0.00,WUHU216HW,2013-03-12 05:26:00,
2013-03-12 00:31:00,33.7,30.4,29.81,West,264,4.7,7.8,88,0.00,,,0.00,WUHU216HW,2013-03-12 05:31:00,
2013-03-12 00:36:00,33.7,30.4,29.81,WSW,242,2.8,7.8,88,0.00,,,0.00,WUHU216HW,2013-03-12 05:36:00,
2013-03-12 00:41:00,33.7,30.4,29.81,WSW,248,2.2,5.9,88,0.00,,,0.00,WUHU216HW,2013-03-12 05:41:00,
2013-03-12 00:46:00,33.5,30.2,29.81,SW,225,3.0,3.5,88,0.00,,,0.00,WUHU216HW,2013-03-12 05:46:00,
2013-03-12 00:51:00,33.7,30.4,29.81,SW,225,3.0,5.6,88,0.00,,,0.00,WUHU216HW,2013-03-12 05:51:00,
2013-03-12 00:56:00,33.7,30.4,29.81,WSW,248,4.1,5.6,88,0.00,,,0.00,WUHU216HW,2013-03-12 05:56:00,
2013-03-12 01:01:00,33.7,30.2,29.81,SW,217,2.7,6.1,87,0.00,,,0.00,WUHU216HW,2013-03-12 06:01:00,
2013-03-12 01:05:00,33.7,30.2,29.81,WSW,238,3.0,6.7,87,0.00,,,0.00,WUHU216HW,2013-03-12 06:05:00,
2013-03-12 01:10:00,33.7,30.2,29.81,WSW,248,3.0,6.7,87,0.00,,,0.00,WUHU216HW,2013-03-12 06:10:00,
2013-03-12 01:15:00,33.5,30.0,29.82,WSW,248,1.4,6.5,87,0.00,,,0.00,WUHU216HW,2013-03-12 06:15:00,
2013-03-12 01:20:00,33.5,29.7,29.82,WSW,253,3.8,10.2,86,0.00,,,0.00,WUHU216HW,2013-03-12 06:20:00,
2013-03-12 01:25:00,33.5,29.7,29.82,WSW,246,4.3,10.2,86,0.00,,,0.00,WUHU216HW,2013-03-12 06:25:00,
2013-03-12 01:30:00,33.5,29.7,29.82,WSW,257,4.7,9.1,86,0.00,,,0.00,WUHU216HW,2013-03-12 06:30:00,
2013-03-12 01:35:00,33.5,29.7,29.83,WSW,251,5.2,9.4,86,0.00,,,0.00,WUHU216HW,2013-03-12 06:35:00,
2013-03-12 01:40:00,33.5,29.7,29.83,West,270,9.1,9.4,86,0.00,,,0.00,WUHU216HW,2013-03-12 06:40:00,
2013-03-12 01:45:00,33.5,29.7,29.82,West,270,4.1,9.1,86,0.00,,,0.00,WUHU216HW,2013-03-12 06:45:00,
2013-03-12 01:50:00,33.3,29.5,29.83,WNW,282,2.4,9.1,86,0.00,,,0.00,WUHU216HW,2013-03-12 06:50:00,
2013-03-12 01:55:00,33.3,29.5,29.83,West,261,4.7,8.3,86,0.00,,,0.00,WUHU216HW,2013-03-12 06:55:00,
2013-03-12 02:01:00,33.3,29.5,29.83,WSW,241,3.7,9.1,86,0.00,,,0.00,WUHU216HW,2013-03-12 07:01:00,
2013-03-12 02:05:00,33.3,29.3,29.83,WSW,248,6.5,10.0,85,0.00,,,0.00,WUHU216HW,2013-03-12 07:05:00,
2013-03-12 02:10:00,33.3,29.3,29.83,West,267,7.6,12.4,85,0.00,,,0.00,WUHU216HW,2013-03-12 07:10:00,
2013-03-12 02:16:00,33.3,29.5,29.83,SW,225,3.5,12.4,86,0.00,,,0.00,WUHU216HW,2013-03-12 07:16:00,
2013-03-12 02:20:00,33.3,29.5,29.83,WSW,248,1.9,6.7,86,0.00,,,0.00,WUHU216HW,2013-03-12 07:20:00,
2013-03-12 02:25:00,33.3,29.5,29.84,WSW,248,0.8,3.5,86,0.00,,,0.00,WUHU216HW,2013-03-12 07:25:00,
2013-03-12 02:30:00,33.3,29.5,29.83,West,261,4.6,6.5,86,0.00,,,0.00,WUHU216HW,2013-03-12 07:30:00,
2013-03-12 02:35:00,33.3,29.5,29.84,WSW,248,1.6,6.5,86,0.00,,,0.00,WUHU216HW,2013-03-12 07:35:00,
2013-03-12 02:40:00,33.3,29.5,29.84,WNW,293,2.6,6.5,86,0.00,,,0.00,WUHU216HW,2013-03-12 07:40:00,
2013-03-12 02:45:00,33.1,29.1,29.84,NW,315,8.0,11.0,85,0.00,,,0.00,WUHU216HW,2013-03-12 07:45:00,
2013-03-12 02:50:00,33.1,29.1,29.84,SW,234,4.6,11.0,85,0.00,,,0.00,WUHU216HW,2013-03-12 07:50:00,
2013-03-12 02:55:00,33.3,29.3,29.84,WSW,243,2.1,8.0,85,0.00,,,0.00,WUHU216HW,2013-03-12 07:55:00,
2013-03-12 03:00:00,33.3,29.3,29.84,WSW,249,1.8,6.5,85,0.00,,,0.00,WUHU216HW,2013-03-12 08:00:00,
2013-03-12 03:05:00,33.1,29.1,29.84,SW,236,3.3,4.8,85,0.00,,,0.00,WUHU216HW,2013-03-12 08:05:00,
2013-03-12 03:10:00,33.1,29.1,29.84,WSW,253,4.7,6.7,85,0.00,,,0.00,WUHU216HW,2013-03-12 08:10:00,
2013-03-12 03:15:00,33.1,29.1,29.84,WSW,251,1.5,6.7,85,0.00,,,0.00,WUHU216HW,2013-03-12 08:15:00,
2013-03-12 03:20:00,33.1,29.1,29.85,West,270,5.1,5.9,85,0.00,,,0.00,WUHU216HW,2013-03-12 08:20:00,
2013-03-12 03:25:00,33.1,28.8,29.84,WSW,248,4.6,8.9,84,0.00,,,0.00,WUHU216HW,2013-03-12 08:25:00,
2013-03-12 03:30:00,33.1,28.8,29.85,West,270,7.6,8.9,84,0.00,,,0.00,WUHU216HW,2013-03-12 08:30:00,
2013-03-12 03:35:00,32.9,28.6,29.84,West,270,8.3,12.8,84,0.00,,,0.00,WUHU216HW,2013-03-12 08:35:00,
2013-03-12 03:40:00,32.9,28.6,29.85,WSW,247,6.0,12.8,84,0.00,,,0.00,WUHU216HW,2013-03-12 08:40:00,
2013-03-12 03:45:00,32.8,28.4,29.85,West,270,4.3,10.4,84,0.00,,,0.00,WUHU216HW,2013-03-12 08:45:00,
2013-03-12 03:50:00,32.8,28.4,29.85,West,270,4.8,10.4,84,0.00,,,0.00,WUHU216HW,2013-03-12 08:50:00,
2013-03-12 03:55:00,32.8,28.4,29.84,West,270,1.1,5.9,84,0.00,,,0.00,WUHU216HW,2013-03-12 08:55:00,
2013-03-12 04:00:00,32.8,28.7,29.85,West,259,1.4,5.9,85,0.00,,,0.00,WUHU216HW,2013-03-12 09:00:00,
2013-03-12 04:05:00,32.8,28.4,29.85,SSW,203,5.6,5.6,84,0.00,,,0.00,WUHU216HW,2013-03-12 09:05:00,
2013-03-12 04:10:00,32.8,28.4,29.85,WSW,256,5.2,8.0,84,0.00,,,0.00,WUHU216HW,2013-03-12 09:10:00,
2013-03-12 04:15:00,32.6,28.3,29.85,WNW,293,9.1,14.5,84,0.00,,,0.00,WUHU216HW,2013-03-12 09:15:00,
2013-03-12 04:20:00,32.6,28.5,29.85,SW,225,5.2,14.5,85,0.00,,,0.00,WUHU216HW,2013-03-12 09:20:00,
2013-03-12 04:25:00,32.4,28.5,29.85,WSW,248,2.7,9.1,85,0.00,,,0.00,WUHU216HW,2013-03-12 09:25:00,
2013-03-12 04:30:00,32.4,28.1,29.86,WSW,248,6.5,15.4,84,0.00,,,0.00,WUHU216HW,2013-03-12 09:30:00,
2013-03-12 04:35:00,32.2,28.0,29.85,WSW,248,4.5,15.4,84,0.00,,,0.00,WUHU216HW,2013-03-12 09:35:00,
2013-03-12 04:40:00,32.2,28.3,29.86,WSW,248,4.9,10.2,85,0.00,,,0.00,WUHU216HW,2013-03-12 09:40:00,
2013-03-12 04:45:00,32.0,27.8,29.86,WSW,248,5.2,10.0,84,0.00,,,0.00,WUHU216HW,2013-03-12 09:45:00,
2013-03-12 04:50:00,32.0,27.8,29.86,WSW,248,3.0,13.4,84,0.00,,,0.00,WUHU216HW,2013-03-12 09:50:00,
2013-03-12 04:55:00,32.0,27.8,29.86,WSW,248,3.8,13.4,84,0.00,,,0.00,WUHU216HW,2013-03-12 09:55:00,
2013-03-12 05:00:00,32.0,27.8,29.86,WSW,248,3.1,10.7,84,0.00,,,0.00,WUHU216HW,2013-03-12 10:00:00,
2013-03-12 05:05:00,31.9,27.6,29.87,WSW,248,6.6,10.7,84,0.00,,,0.00,WUHU216HW,2013-03-12 10:05:00,
2013-03-12 05:10:00,31.9,27.6,29.87,WSW,248,8.9,11.3,84,0.00,,,0.00,WUHU216HW,2013-03-12 10:10:00,
2013-03-12 05:15:00,31.9,27.6,29.87,WSW,248,4.7,11.3,84,0.00,,,0.00,WUHU216HW,2013-03-12 10:15:00,
2013-03-12 05:20:00,31.7,27.5,29.87,WSW,248,1.3,11.0,84,0.00,,,0.00,WUHU216HW,2013-03-12 10:20:00,
2013-03-12 05:25:00,31.7,27.5,29.87,WSW,248,5.4,12.1,84,0.00,,,0.00,WUHU216HW,2013-03-12 10:25:00,
2013-03-12 05:30:00,31.7,27.5,29.87,WSW,248,3.0,12.1,84,0.00,,,0.00,WUHU216HW,2013-03-12 10:30:00,
2013-03-12 05:35:00,31.7,27.5,29.87,WSW,248,4.3,7.8,84,0.00,,,0.00,WUHU216HW,2013-03-12 10:35:00,
2013-03-12 05:40:00,31.5,27.3,29.87,WSW,248,2.6,6.5,84,0.00,,,0.00,WUHU216HW,2013-03-12 10:40:00,
2013-03-12 05:45:00,31.5,27.3,29.88,WSW,248,2.3,6.5,84,0.00,,,0.00,WUHU216HW,2013-03-12 10:45:00,
2013-03-12 05:50:00,31.5,27.3,29.88,WSW,248,2.3,5.9,84,0.00,,,0.00,WUHU216HW,2013-03-12 10:50:00,
2013-03-12 05:55:00,31.5,27.3,29.88,WSW,248,4.8,5.9,84,0.00,,,0.00,WUHU216HW,2013-03-12 10:55:00,
2013-03-12 06:00:00,31.5,27.3,29.88,WSW,248,1.5,7.0,84,0.00,,,0.00,WUHU216HW,2013-03-12 11:00:00,
2013-03-12 06:05:00,31.5,27.3,29.88,WSW,248,2.6,9.1,84,0.00,,,0.00,WUHU216HW,2013-03-12 11:05:00,
2013-03-12 06:10:00,31.5,27.3,29.88,WSW,248,2.7,9.1,84,0.00,,,0.00,WUHU216HW,2013-03-12 11:10:00,
2013-03-12 06:15:00,31.3,27.1,29.88,WSW,248,1.6,8.3,84,0.00,,,0.00,WUHU216HW,2013-03-12 11:15:00,
2013-03-12 06:20:00,31.3,27.1,29.88,WSW,248,2.3,5.4,84,0.00,,,0.00,WUHU216HW,2013-03-12 11:20:00,
2013-03-12 06:25:00,31.3,27.1,29.88,WSW,248,2.3,6.1,84,0.00,,,0.00,WUHU216HW,2013-03-12 11:25:00,
2013-03-12 06:30:00,31.3,27.1,29.88,WSW,248,1.4,6.1,84,0.00,,,0.00,WUHU216HW,2013-03-12 11:30:00,
2013-03-12 06:35:00,31.3,27.1,29.88,WSW,248,2.0,5.6,84,0.00,,,0.00,WUHU216HW,2013-03-12 11:35:00,
2013-03-12 06:40:00,31.3,27.1,29.88,WSW,248,1.3,5.6,84,0.00,,,0.00,WUHU216HW,2013-03-12 11:40:00,
2013-03-12 06:45:00,31.3,27.1,29.88,WSW,248,2.0,5.6,84,0.00,,,0.00,WUHU216HW,2013-03-12 11:45:00,
2013-03-12 06:50:00,31.3,27.1,29.88,WSW,248,3.7,7.8,84,0.00,,,0.00,WUHU216HW,2013-03-12 11:50:00,
2013-03-12 06:55:00,31.3,27.1,29.88,WSW,248,4.8,7.8,84,0.00,,,0.00,WUHU216HW,2013-03-12 11:55:00,
2013-03-12 07:00:00,31.3,27.1,29.88,WSW,248,4.1,6.1,84,0.00,,,0.00,WUHU216HW,2013-03-12 12:00:00,
2013-03-12 07:05:00,31.1,26.7,29.89,WSW,248,4.3,7.0,83,0.00,,,0.00,WUHU216HW,2013-03-12 12:05:00,
2013-03-12 07:10:00,31.1,26.9,29.89,WSW,248,2.2,7.0,84,0.00,,,0.00,WUHU216HW,2013-03-12 12:10:00,
2013-03-12 07:15:00,31.3,27.1,29.90,WSW,248,2.2,6.5,84,0.00,,,0.00,WUHU216HW,2013-03-12 12:15:00,
2013-03-12 07:20:00,31.3,27.1,29.90,WSW,248,7.2,7.2,84,0.00,,,0.00,WUHU216HW,2013-03-12 12:20:00,
2013-03-12 07:25:00,31.3,26.8,29.90,WSW,248,1.6,8.3,83,0.00,,,0.00,WUHU216HW,2013-03-12 12:25:00,
2013-03-12 07:30:00,31.3,26.8,29.90,WSW,248,1.5,8.3,83,0.00,,,0.00,WUHU216HW,2013-03-12 12:30:00,
2013-03-12 07:35:00,31.3,26.8,29.90,WSW,248,2.7,5.6,83,0.00,,,0.00,WUHU216HW,2013-03-12 12:35:00,
2013-03-12 07:40:00,31.3,26.8,29.90,WSW,248,1.6,4.1,83,0.00,,,0.00,WUHU216HW,2013-03-12 12:40:00,
2013-03-12 07:45:00,31.3,26.8,29.91,WSW,248,7.0,7.0,83,0.00,,,0.00,WUHU216HW,2013-03-12 12:45:00,
2013-03-12 07:50:00,31.3,26.8,29.91,WSW,248,3.2,7.0,83,0.00,,,0.00,WUHU216HW,2013-03-12 12:50:00,
2013-03-12 07:55:00,31.5,27.0,29.91,WSW,248,1.8,7.0,83,0.00,,,0.00,WUHU216HW,2013-03-12 12:55:00,
2013-03-12 08:00:00,31.3,26.5,29.91,WSW,248,4.8,9.1,82,0.00,,,0.00,WUHU216HW,2013-03-12 13:00:00,
2013-03-12 08:05:00,31.3,26.2,29.91,WSW,248,1.3,9.1,81,0.00,,,0.00,WUHU216HW,2013-03-12 13:05:00,
2013-03-12 08:10:00,31.3,26.2,29.91,WSW,248,3.0,9.1,81,0.00,,,0.00,WUHU216HW,2013-03-12 13:10:00,
2013-03-12 08:15:00,31.3,26.2,29.91,WSW,248,4.1,5.2,81,0.00,,,0.00,WUHU216HW,2013-03-12 13:15:00,
2013-03-12 08:20:00,31.3,25.6,29.91,WSW,248,4.4,8.6,79,0.00,,,0.00,WUHU216HW,2013-03-12 13:20:00,
2013-03-12 08:25:00,31.5,26.1,29.91,WSW,248,2.5,8.6,80,0.00,,,0.00,WUHU216HW,2013-03-12 13:25:00,
2013-03-12 08:30:00,31.3,25.6,29.91,WSW,248,7.3,13.7,79,0.00,,,0.00,WUHU216HW,2013-03-12 13:30:00,
2013-03-12 08:35:00,31.3,25.6,29.92,WSW,248,2.7,13.7,79,0.00,,,0.00,WUHU216HW,2013-03-12 13:35:00,
2013-03-12 08:40:00,31.3,25.6,29.92,WSW,248,5.2,12.4,79,0.00,,,0.00,WUHU216HW,2013-03-12 13:40:00,
2013-03-12 08:45:00,31.3,25.6,29.92,WSW,248,6.5,8.9,79,0.00,,,0.00,WUHU216HW,2013-03-12 13:45:00,
2013-03-12 08:50:00,31.3,25.6,29.91,WSW,248,2.6,8.9,79,0.00,,,0.00,WUHU216HW,2013-03-12 13:50:00,
2013-03-12 08:55:00,31.5,25.7,29.91,WSW,248,4.1,6.5,79,0.00,,,0.00,WUHU216HW,2013-03-12 13:55:00,
2013-03-12 09:00:00,31.5,26.1,29.91,WSW,248,4.3,8.9,80,0.00,,,0.00,WUHU216HW,2013-03-12 14:00:00,
2013-03-12 09:05:00,31.7,25.9,29.91,WSW,248,3.9,8.9,79,0.00,,,0.00,WUHU216HW,2013-03-12 14:05:00,
2013-03-12 09:10:00,31.7,25.9,29.91,WSW,248,2.0,7.6,79,0.00,,,0.00,WUHU216HW,2013-03-12 14:10:00,
2013-03-12 09:15:00,31.9,26.1,29.91,WSW,248,5.6,7.6,79,0.00,,,0.00,WUHU216HW,2013-03-12 14:15:00,
2013-03-12 09:20:00,31.9,25.8,29.91,WSW,248,4.5,10.2,78,0.00,,,0.00,WUHU216HW,2013-03-12 14:20:00,
2013-03-12 09:25:00,31.9,25.8,29.91,WSW,248,3.6,10.2,78,0.00,,,0.00,WUHU216HW,2013-03-12 14:25:00,
2013-03-12 09:30:00,32.0,26.0,29.91,WSW,248,2.9,9.1,78,0.00,,,0.00,WUHU216HW,2013-03-12 14:30:00,
2013-03-12 09:35:00,32.2,26.5,29.91,WSW,248,1.9,9.1,79,0.00,,,0.00,WUHU216HW,2013-03-12 14:35:00,
2013-03-12 09:40:00,32.6,26.5,29.92,WSW,248,1.0,4.1,78,0.00,,,0.00,WUHU216HW,2013-03-12 14:40:00,
2013-03-12 09:45:00,32.9,26.5,29.92,WSW,248,4.7,7.6,77,0.00,,,0.00,WUHU216HW,2013-03-12 14:45:00,
2013-03-12 09:50:00,32.9,26.5,29.92,WSW,248,1.9,8.0,77,0.00,,,0.00,WUHU216HW,2013-03-12 14:50:00,
2013-03-12 09:55:00,33.5,27.0,29.92,WSW,248,3.5,8.0,77,0.00,,,0.00,WUHU216HW,2013-03-12 14:55:00,
2013-03-12 10:00:00,33.5,26.3,29.92,WSW,248,5.6,9.7,75,0.00,,,0.00,WUHU216HW,2013-03-12 15:00:00,
2013-03-12 10:05:00,33.5,26.0,29.92,WSW,248,6.1,9.7,74,0.00,,,0.00,WUHU216HW,2013-03-12 15:05:00,
2013-03-12 10:10:00,33.5,26.3,29.92,WSW,248,2.6,9.4,75,0.00,,,0.00,WUHU216HW,2013-03-12 15:10:00,
2013-03-12 10:15:00,34.0,27.2,29.92,West,270,4.3,9.4,76,0.00,,,0.00,WUHU216HW,2013-03-12 15:15:00,
2013-03-12 10:20:00,34.2,27.4,29.93,West,270,3.0,5.2,76,0.00,,,0.00,WUHU216HW,2013-03-12 15:20:00,
2013-03-12 10:25:00,34.2,27.0,29.93,West,270,4.0,5.4,75,0.00,,,0.00,WUHU216HW,2013-03-12 15:25:00,
2013-03-12 10:30:00,34.6,27.4,29.93,West,270,3.5,5.9,75,0.00,,,0.00,WUHU216HW,2013-03-12 15:30:00,
2013-03-12 10:35:00,35.5,27.9,29.92,WSW,244,3.8,5.9,74,0.00,,,0.00,WUHU216HW,2013-03-12 15:35:00,
2013-03-12 10:40:00,36.0,28.2,29.93,SW,225,4.8,5.9,73,0.00,,,0.00,WUHU216HW,2013-03-12 15:40:00,
2013-03-12 10:45:00,36.4,28.5,29.93,West,270,5.9,5.9,73,0.00,,,0.00,WUHU216HW,2013-03-12 15:45:00,
2013-03-12 10:50:00,36.4,28.5,29.93,SW,225,4.1,7.6,73,0.00,,,0.00,WUHU216HW,2013-03-12 15:50:00,
2013-03-12 10:55:00,36.4,28.5,29.93,SW,229,3.3,7.6,73,0.00,,,0.00,WUHU216HW,2013-03-12 15:55:00,
2013-03-12 11:00:00,36.0,28.2,29.93,SSW,205,5.5,7.2,73,0.00,,,0.00,WUHU216HW,2013-03-12 16:00:00,
2013-03-12 11:05:00,35.3,27.1,29.94,West,262,3.6,8.9,72,0.00,,,0.00,WUHU216HW,2013-03-12 16:05:00,
2013-03-12 11:10:00,36.0,28.2,29.93,SW,222,4.6,8.9,73,0.00,,,0.00,WUHU216HW,2013-03-12 16:10:00,
2013-03-12 11:15:00,36.9,28.7,29.93,SW,226,4.0,8.3,72,0.00,,,0.00,WUHU216HW,2013-03-12 16:15:00,
2013-03-12 11:20:00,37.4,29.0,29.93,SW,225,3.7,7.6,71,0.00,,,0.00,WUHU216HW,2013-03-12 16:20:00,
2013-03-12 11:25:00,37.8,29.0,29.93,SW,225,5.4,7.6,70,0.00,,,0.00,WUHU216HW,2013-03-12 16:25:00,
2013-03-12 11:30:00,38.2,28.9,29.93,West,270,6.5,6.5,69,0.00,,,0.00,WUHU216HW,2013-03-12 16:30:00,
2013-03-12 11:35:00,38.2,28.9,29.93,West,270,4.1,6.7,69,0.00,,,0.00,WUHU216HW,2013-03-12 16:35:00,
2013-03-12 11:40:00,37.8,27.5,29.93,WSW,238,3.8,7.6,66,0.00,,,0.00,WUHU216HW,2013-03-12 16:40:00,
2013-03-12 11:45:00,37.1,27.2,29.93,SW,218,4.6,7.6,67,0.00,,,0.00,WUHU216HW,2013-03-12 16:45:00,
2013-03-12 11:50:00,36.7,27.2,29.93,WNW,293,4.1,7.6,68,0.00,,,0.00,WUHU216HW,2013-03-12 16:50:00,
2013-03-12 11:55:00,37.1,27.9,29.93,SW,234,3.6,5.2,69,0.00,,,0.00,WUHU216HW,2013-03-12 16:55:00,
2013-03-12 12:00:00,37.6,27.6,29.93,WSW,248,5.0,6.1,67,0.00,,,0.00,WUHU216HW,2013-03-12 17:00:00,
2013-03-12 12:06:00,37.6,27.3,29.93,West,270,11.0,11.0,66,0.00,,,0.00,WUHU216HW,2013-03-12 17:06:00,
2013-03-12 12:11:00,38.2,28.2,29.93,WSW,248,4.6,11.0,67,0.00,,,0.00,WUHU216HW,2013-03-12 17:11:00,
2013-03-12 12:16:00,38.5,27.7,29.93,West,263,2.8,10.7,65,0.00,,,0.00,WUHU216HW,2013-03-12 17:16:00,
2013-03-12 12:21:00,39.2,28.0,29.93,WSW,239,3.6,10.7,64,0.00,,,0.00,WUHU216HW,2013-03-12 17:21:00,
2013-03-12 12:26:00,39.8,28.2,29.93,WSW,248,4.8,6.5,63,0.00,,,0.00,WUHU216HW,2013-03-12 17:26:00,
2013-03-12 12:31:00,39.4,28.2,29.93,WSW,246,2.9,6.5,64,0.00,,,0.00,WUHU216HW,2013-03-12 17:31:00,
2013-03-12 12:36:00,38.9,27.3,29.92,WSW,242,4.6,5.2,63,0.00,,,0.00,WUHU216HW,2013-03-12 17:36:00,
2013-03-12 12:41:00,38.5,26.9,29.93,WNW,285,4.4,10.4,63,0.00,,,0.00,WUHU216HW,2013-03-12 17:41:00,
2013-03-12 12:46:00,38.3,26.8,29.93,WSW,246,4.9,10.4,63,0.00,,,0.00,WUHU216HW,2013-03-12 17:46:00,
2013-03-12 12:52:00,38.5,26.9,29.93,WSW,241,5.0,9.4,63,0.00,,,0.00,WUHU216HW,2013-03-12 17:52:00,
2013-03-12 12:57:00,38.2,26.7,29.93,WSW,251,4.3,10.7,63,0.00,,,0.00,WUHU216HW,2013-03-12 17:57:00,
2013-03-12 13:02:00,38.2,26.7,29.92,SW,225,4.3,11.3,63,0.00,,,0.00,WUHU216HW,2013-03-12 18:02:00,
2013-03-12 13:07:00,38.5,26.2,29.92,West,272,5.1,11.5,61,0.00,,,0.00,WUHU216HW,2013-03-12 18:07:00,
2013-03-12 13:12:00,38.3,26.8,29.93,West,260,4.2,11.5,63,0.00,,,0.00,WUHU216HW,2013-03-12 18:12:00,
2013-03-12 13:17:00,38.3,26.4,29.93,WSW,244,6.0,11.3,62,0.00,,,0.00,WUHU216HW,2013-03-12 18:17:00,
2013-03-12 13:22:00,38.5,26.6,29.93,WSW,248,5.2,8.3,62,0.00,,,0.00,WUHU216HW,2013-03-12 18:22:00,
2013-03-12 13:27:00,38.2,25.8,29.93,West,259,4.3,11.8,61,0.00,,,0.00,WUHU216HW,2013-03-12 18:27:00,
2013-03-12 13:32:00,37.8,25.2,29.93,WSW,257,6.5,11.8,60,0.00,,,0.00,WUHU216HW,2013-03-12 18:32:00,
2013-03-12 13:37:00,37.3,25.5,29.93,WSW,247,2.9,11.8,62,0.00,,,0.00,WUHU216HW,2013-03-12 18:37:00,
2013-03-12 13:42:00,37.1,25.3,29.93,WSW,240,5.6,8.0,62,0.00,,,0.00,WUHU216HW,2013-03-12 18:42:00,
2013-03-12 13:47:00,36.9,25.5,29.93,WSW,237,4.6,8.0,63,0.00,,,0.00,WUHU216HW,2013-03-12 18:47:00,
2013-03-12 13:52:00,36.7,25.3,29.93,West,270,8.3,8.3,63,0.00,,,0.00,WUHU216HW,2013-03-12 18:52:00,
2013-03-12 13:57:00,36.5,25.5,29.93,West,270,4.8,9.4,64,0.00,,,0.00,WUHU216HW,2013-03-12 18:57:00,
2013-03-12 14:02:00,36.5,25.9,29.93,West,270,7.2,10.4,65,0.00,,,0.00,WUHU216HW,2013-03-12 19:02:00,
2013-03-12 14:07:00,36.4,25.4,29.93,SW,234,3.7,11.0,64,0.00,,,0.00,WUHU216HW,2013-03-12 19:07:00,
2013-03-12 14:12:00,36.4,26.1,29.93,West,264,3.3,11.0,66,0.00,,,0.00,WUHU216HW,2013-03-12 19:12:00,
2013-03-12 14:17:00,36.4,26.5,29.93,WSW,238,3.2,5.6,67,0.00,,,0.00,WUHU216HW,2013-03-12 19:17:00,
2013-03-12 14:23:00,36.4,26.1,29.93,WSW,248,2.4,11.0,66,0.00,,,0.00,WUHU216HW,2013-03-12 19:23:00,
2013-03-12 14:28:00,36.4,26.1,29.93,WSW,254,4.4,11.0,66,0.00,,,0.00,WUHU216HW,2013-03-12 19:28:00,
2013-03-12 14:33:00,36.4,26.1,29.92,WSW,240,3.8,7.0,66,0.00,,,0.00,WUHU216HW,2013-03-12 19:33:00,
2013-03-12 14:38:00,36.7,26.0,29.92,WNW,293,7.6,11.5,65,0.00,,,0.00,WUHU216HW,2013-03-12 19:38:00,
2013-03-12 14:43:00,37.4,26.4,29.92,WSW,258,9.5,13.2,64,0.00,,,0.00,WUHU216HW,2013-03-12 19:43:00,
2013-03-12 14:48:00,38.5,27.7,29.92,WSW,243,4.4,13.2,65,0.00,,,0.00,WUHU216HW,2013-03-12 19:48:00,
2013-03-12 14:53:00,38.7,27.5,29.92,WSW,248,4.3,13.2,64,0.00,,,0.00,WUHU216HW,2013-03-12 19:53:00,
2013-03-12 14:58:00,38.3,26.4,29.92,WSW,244,4.0,6.5,62,0.00,,,0.00,WUHU216HW,2013-03-12 19:58:00,
2013-03-12 15:03:00,38.2,26.3,29.92,WSW,254,7.8,10.4,62,0.00,,,0.00,WUHU216HW,2013-03-12 20:03:00,
2013-03-12 15:08:00,38.3,26.8,29.92,WSW,254,4.7,10.4,63,0.00,,,0.00,WUHU216HW,2013-03-12 20:08:00,
2013-03-12 15:13:00,38.5,26.2,29.92,WSW,241,7.7,10.7,61,0.00,,,0.00,WUHU216HW,2013-03-12 20:13:00,
2013-03-12 15:18:00,38.3,26.0,29.92,WSW,251,8.4,14.5,61,0.00,,,0.00,WUHU216HW,2013-03-12 20:18:00,
2013-03-12 15:23:00,38.3,25.7,29.92,West,260,7.5,14.5,60,0.00,,,0.00,WUHU216HW,2013-03-12 20:23:00,
2013-03-12 15:28:00,38.5,25.8,29.92,West,267,7.9,11.3,60,0.00,,,0.00,WUHU216HW,2013-03-12 20:28:00,
2013-03-12 15:33:00,38.5,25.8,29.92,West,264,10.3,16.9,60,0.00,,,0.00,WUHU216HW,2013-03-12 20:33:00,
2013-03-12 15:38:00,38.3,25.7,29.92,WSW,248,2.9,16.9,60,0.00,,,0.00,WUHU216HW,2013-03-12 20:38:00,
2013-03-12 15:43:00,38.5,26.6,29.92,WSW,258,5.0,10.7,62,0.00,,,0.00,WUHU216HW,2013-03-12 20:43:00,
2013-03-12 15:48:00,38.5,26.9,29.93,West,270,11.3,11.3,63,0.00,,,0.00,WUHU216HW,2013-03-12 20:48:00,
2013-03-12 15:53:00,38.5,26.6,29.93,West,274,6.1,11.3,62,0.00,,,0.00,WUHU216HW,2013-03-12 20:53:00,
2013-03-12 15:58:00,38.7,27.1,29.93,WSW,239,2.4,11.3,63,0.00,,,0.00,WUHU216HW,2013-03-12 20:58:00,
2013-03-12 16:03:00,38.9,27.3,29.92,WSW,248,4.3,6.5,63,0.00,,,0.00,WUHU216HW,2013-03-12 21:03:00,
2013-03-12 16:08:00,38.9,26.9,29.92,WSW,245,3.7,8.9,62,0.00,,,0.00,WUHU216HW,2013-03-12 21:08:00,
2013-03-12 16:13:00,38.9,26.9,29.92,West,261,5.8,10.2,62,0.00,,,0.00,WUHU216HW,2013-03-12 21:13:00,
2013-03-12 16:18:00,39.2,27.6,29.92,WSW,248,2.6,10.2,63,0.00,,,0.00,WUHU216HW,2013-03-12 21:18:00,
2013-03-12 16:23:00,40.0,28.4,29.92,WSW,248,5.6,5.6,63,0.00,,,0.00,WUHU216HW,2013-03-12 21:23:00,
2013-03-12 16:28:00,39.6,28.0,29.92,West,270,5.6,8.3,63,0.00,,,0.00,WUHU216HW,2013-03-12 21:28:00,
2013-03-12 16:33:00,39.1,27.1,29.92,WNW,282,7.7,10.4,62,0.00,,,0.00,WUHU216HW,2013-03-12 21:33:00,
2013-03-12 16:38:00,38.3,27.2,29.92,West,270,10.4,11.5,64,0.00,,,0.00,WUHU216HW,2013-03-12 21:38:00,
2013-03-12 16:43:00,37.6,27.6,29.93,West,264,8.6,14.3,67,0.00,,,0.00,WUHU216HW,2013-03-12 21:43:00,
2013-03-12 16:48:00,37.1,28.6,29.93,SW,225,5.2,14.3,71,0.00,,,0.00,WUHU216HW,2013-03-12 21:48:00,
2013-03-12 16:53:00,36.7,29.9,29.94,SW,225,4.8,11.0,76,0.00,,,0.00,WUHU216HW,2013-03-12 21:53:00,
2013-03-12 16:58:00,36.0,29.2,29.94,WSW,238,2.2,7.6,76,0.00,,,0.00,WUHU216HW,2013-03-12 21:58:00,
2013-03-12 17:03:00,34.9,29.6,29.94,West,270,7.8,7.8,81,0.00,,,0.00,WUHU216HW,2013-03-12 22:03:00,
2013-03-12 17:08:00,34.4,30.0,29.94,West,273,4.3,9.4,84,0.00,,,0.00,WUHU216HW,2013-03-12 22:08:00,
2013-03-12 17:13:00,34.2,29.5,29.93,SW,232,2.4,9.4,83,0.00,,,0.00,WUHU216HW,2013-03-12 22:13:00,
2013-03-12 17:18:00,34.6,30.2,29.93,West,270,4.6,5.2,84,0.00,,,0.00,WUHU216HW,2013-03-12 22:18:00,
2013-03-12 17:23:00,34.9,30.5,29.94,SW,235,1.6,6.5,84,0.00,,,0.00,WUHU216HW,2013-03-12 22:23:00,
2013-03-12 17:28:00,34.9,30.5,29.93,SW,225,3.0,6.5,84,0.00,,,0.00,WUHU216HW,2013-03-12 22:28:00,
2013-03-12 17:33:00,34.7,30.3,29.93,WSW,253,3.9,9.1,84,0.00,,,0.00,WUHU216HW,2013-03-12 22:33:00,
2013-03-12 17:38:00,34.6,30.2,29.93,SW,235,3.2,9.1,84,0.00,,,0.00,WUHU216HW,2013-03-12 22:38:00,
2013-03-12 17:43:00,34.6,30.2,29.93,West,270,5.2,8.0,84,0.00,,,0.00,WUHU216HW,2013-03-12 22:43:00,
2013-03-12 17:48:00,34.4,30.0,29.93,West,270,2.6,8.0,84,0.00,,,0.00,WUHU216HW,2013-03-12 22:48:00,
2013-03-12 17:53:00,34.4,30.0,29.93,SW,225,3.0,5.2,84,0.00,,,0.00,WUHU216HW,2013-03-12 22:53:00,
2013-03-12 17:58:00,34.4,30.0,29.93,West,270,2.2,6.7,84,0.00,,,0.00,WUHU216HW,2013-03-12 22:58:00,
2013-03-12 18:03:00,34.6,30.2,29.93,WSW,252,2.4,6.7,84,0.00,,,0.00,WUHU216HW,2013-03-12 23:03:00,
2013-03-12 18:08:00,34.6,30.2,29.94,WSW,258,4.4,9.4,84,0.00,,,0.00,WUHU216HW,2013-03-12 23:08:00,
2013-03-12 18:13:00,34.6,30.2,29.94,WSW,248,5.9,9.4,84,0.00,,,0.00,WUHU216HW,2013-03-12 23:13:00,
2013-03-12 18:18:00,34.4,30.0,29.94,WSW,248,11.4,13.4,84,0.00,,,0.00,WUHU216HW,2013-03-12 23:18:00,
2013-03-12 18:23:00,34.4,30.0,29.94,WSW,248,7.0,13.4,84,0.00,,,0.00,WUHU216HW,2013-03-12 23:23:00,
2013-03-12 18:28:00,34.4,29.7,29.94,WSW,248,4.6,8.3,83,0.00,,,0.00,WUHU216HW,2013-03-12 23:28:00,
2013-03-12 18:33:00,34.4,30.0,29.94,WSW,245,2.5,8.0,84,0.00,,,0.00,WUHU216HW,2013-03-12 23:33:00,
2013-03-12 18:38:00,34.4,30.0,29.94,WSW,248,1.9,4.6,84,0.00,,,0.00,WUHU216HW,2013-03-12 23:38:00,
2013-03-12 18:43:00,34.4,29.7,29.94,SW,225,7.6,7.6,83,0.00,,,0.00,WUHU216HW,2013-03-12 23:43:00,
2013-03-12 18:48:00,34.2,29.5,29.94,West,274,1.9,7.6,83,0.00,,,0.00,WUHU216HW,2013-03-12 23:48:00,
2013-03-12 18:53:00,34.2,29.5,29.94,SW,217,2.8,7.8,83,0.00,,,0.00,WUHU216HW,2013-03-12 23:53:00,
2013-03-12 18:58:00,34.0,29.4,29.94,WSW,248,3.6,8.0,83,0.00,,,0.00,WUHU216HW,2013-03-12 23:58:00,
2013-03-12 19:03:00,34.0,29.4,29.94,North,0,5.9,8.0,83,0.00,,,0.00,WUHU216HW,2013-03-13 00:03:00,
2013-03-12 19:08:00,34.0,29.4,29.94,West,270,1.6,5.9,83,0.00,,,0.00,WUHU216HW,2013-03-13 00:08:00,
2013-03-12 19:13:00,34.0,29.0,29.94,WSW,248,2.2,5.9,82,0.00,,,0.00,WUHU216HW,2013-03-13 00:13:00,
2013-03-12 19:18:00,34.0,29.0,29.95,West,270,4.3,5.6,82,0.00,,,0.00,WUHU216HW,2013-03-13 00:18:00,
2013-03-12 19:23:00,34.0,29.0,29.95,West,267,4.2,5.9,82,0.00,,,0.00,WUHU216HW,2013-03-13 00:23:00,
2013-03-12 19:28:00,33.8,28.5,29.95,WSW,245,2.6,5.9,81,0.00,,,0.00,WUHU216HW,2013-03-13 00:28:00,
2013-03-12 19:33:00,33.8,28.8,29.95,SW,225,1.9,8.0,82,0.00,,,0.00,WUHU216HW,2013-03-13 00:33:00,
2013-03-12 19:38:00,33.8,28.8,29.95,WSW,248,3.0,8.0,82,0.00,,,0.00,WUHU216HW,2013-03-13 00:38:00,
2013-03-12 19:43:00,33.8,28.5,29.95,WSW,251,3.4,6.5,81,0.00,,,0.00,WUHU216HW,2013-03-13 00:43:00,
2013-03-12 19:48:00,33.8,28.5,29.95,West,269,8.7,16.3,81,0.00,,,0.00,WUHU216HW,2013-03-13 00:48:00,
2013-03-12 19:53:00,33.7,29.3,29.96,WSW,243,6.8,16.3,84,0.00,,,0.00,WUHU216HW,2013-03-13 00:53:00,
2013-03-12 19:58:00,33.1,28.8,29.95,WSW,248,3.5,9.7,84,0.00,,,0.00,WUHU216HW,2013-03-13 00:58:00,
2013-03-12 20:03:00,32.8,28.4,29.96,WSW,252,2.8,7.0,84,0.00,,,0.00,WUHU216HW,2013-03-13 01:03:00,
2013-03-12 20:08:00,32.6,28.5,29.96,SSW,203,3.0,4.8,85,0.00,,,0.00,WUHU216HW,2013-03-13 01:08:00,
2013-03-12 20:13:00,32.6,28.3,29.96,WSW,245,3.5,8.3,84,0.00,,,0.00,WUHU216HW,2013-03-13 01:13:00,
2013-03-12 20:18:00,32.6,28.0,29.96,West,259,3.1,8.3,83,0.00,,,0.00,WUHU216HW,2013-03-13 01:18:00,
2013-03-12 20:23:00,32.6,28.0,29.96,SSW,203,3.0,5.4,83,0.00,,,0.00,WUHU216HW,2013-03-13 01:23:00,
2013-03-12 20:28:00,32.4,27.5,29.96,West,270,3.0,3.5,82,0.00,,,0.00,WUHU216HW,2013-03-13 01:28:00,
2013-03-12 20:33:00,32.4,27.5,29.96,West,273,4.1,7.8,82,0.00,,,0.00,WUHU216HW,2013-03-13 01:33:00,
2013-03-12 20:38:00,32.4,27.5,29.96,WSW,248,3.0,8.3,82,0.00,,,0.00,WUHU216HW,2013-03-13 01:38:00,
2013-03-12 20:43:00,32.2,27.4,29.96,WNW,293,4.6,8.3,82,0.00,,,0.00,WUHU216HW,2013-03-13 01:43:00,
2013-03-12 20:48:00,32.2,27.4,29.96,West,261,4.3,10.2,82,0.00,,,0.00,WUHU216HW,2013-03-13 01:48:00,
2013-03-12 20:53:00,32.2,27.4,29.97,SW,235,3.1,10.2,82,0.00,,,0.00,WUHU216HW,2013-03-13 01:53:00,
2013-03-12 20:58:00,32.2,27.4,29.96,WSW,248,3.5,8.3,82,0.00,,,0.00,WUHU216HW,2013-03-13 01:58:00,
2013-03-12 21:03:00,32.0,27.2,29.97,West,270,3.0,8.9,82,0.00,,,0.00,WUHU216HW,2013-03-13 02:03:00,
2013-03-12 21:08:00,32.0,27.2,29.97,WSW,254,4.3,8.9,82,0.00,,,0.00,WUHU216HW,2013-03-13 02:08:00,
2013-03-12 21:13:00,32.0,26.9,29.97,West,278,2.2,8.6,81,0.00,,,0.00,WUHU216HW,2013-03-13 02:13:00,
2013-03-12 21:18:00,32.0,26.9,29.97,West,268,4.6,7.0,81,0.00,,,0.00,WUHU216HW,2013-03-13 02:18:00,
2013-03-12 21:23:00,32.0,26.6,29.97,West,265,8.6,12.6,80,0.00,,,0.00,WUHU216HW,2013-03-13 02:23:00,
2013-03-12 21:28:00,32.0,26.3,29.98,West,270,8.3,12.6,79,0.00,,,0.00,WUHU216HW,2013-03-13 02:28:00,
2013-03-12 21:33:00,31.9,25.8,29.98,West,270,4.8,11.8,78,0.00,,,0.00,WUHU216HW,2013-03-13 02:33:00,
2013-03-12 21:38:00,31.7,25.7,29.98,West,268,5.0,11.8,78,0.00,,,0.00,WUHU216HW,2013-03-13 02:38:00,
2013-03-12 21:43:00,31.7,25.0,29.98,West,270,8.3,18.8,76,0.00,,,0.00,WUHU216HW,2013-03-13 02:43:00,
2013-03-12 21:48:00,31.7,24.3,29.98,West,264,9.5,18.8,74,0.00,,,0.00,WUHU216HW,2013-03-13 02:48:00,
2013-03-12 21:53:00,31.7,24.7,29.98,West,270,7.0,12.1,75,0.00,,,0.00,WUHU216HW,2013-03-13 02:53:00,
2013-03-12 21:58:00,31.7,24.7,29.98,WSW,248,8.3,8.3,75,0.00,,,0.00,WUHU216HW,2013-03-13 02:58:00,
2013-03-12 22:03:00,31.5,24.1,29.98,WNW,293,6.5,8.3,74,0.00,,,0.00,WUHU216HW,2013-03-13 03:03:00,
2013-03-12 22:08:00,31.5,24.1,29.98,West,270,4.3,8.3,74,0.00,,,0.00,WUHU216HW,2013-03-13 03:08:00,
2013-03-12 22:13:00,31.5,23.9,29.99,WNW,285,4.3,6.5,73,0.00,,,0.00,WUHU216HW,2013-03-13 03:13:00,
2013-03-12 22:18:00,31.3,23.7,29.99,West,270,8.6,8.6,73,0.00,,,0.00,WUHU216HW,2013-03-13 03:18:00,
2013-03-12 22:23:00,31.3,23.7,29.99,WSW,257,3.7,11.8,73,0.00,,,0.00,WUHU216HW,2013-03-13 03:23:00,
2013-03-12 22:28:00,31.1,23.5,29.99,NW,308,2.1,11.8,73,0.00,,,0.00,WUHU216HW,2013-03-13 03:28:00,
2013-03-12 22:33:00,31.1,23.8,29.99,WNW,284,2.7,4.1,74,0.00,,,0.00,WUHU216HW,2013-03-13 03:33:00,
2013-03-12 22:38:00,31.0,23.3,29.99,West,270,4.8,4.8,73,0.00,,,0.00,WUHU216HW,2013-03-13 03:38:00,
2013-03-12 22:43:00,30.8,22.5,29.99,WSW,248,12.6,15.0,71,0.00,,,0.00,WUHU216HW,2013-03-13 03:43:00,
2013-03-12 22:48:00,30.8,22.8,29.99,West,270,3.7,15.0,72,0.00,,,0.00,WUHU216HW,2013-03-13 03:48:00,
2013-03-12 22:53:00,30.6,22.3,29.99,West,270,4.8,12.6,71,0.00,,,0.00,WUHU216HW,2013-03-13 03:53:00,
2013-03-12 22:58:00,30.6,22.6,29.99,West,266,4.0,9.1,72,0.00,,,0.00,WUHU216HW,2013-03-13 03:58:00,
2013-03-12 23:00:00,30.6,22.6,29.99,West,270,4.1,9.1,72,0.00,,,0.00,WUHU216HW,2013-03-13 04:00:00,
2013-03-12 23:05:00,30.6,23.0,29.99,WNW,282,4.2,9.1,73,0.00,,,0.00,WUHU216HW,2013-03-13 04:05:00,
2013-03-12 23:10:00,30.4,22.8,29.99,West,263,4.6,5.6,73,0.00,,,0.00,WUHU216HW,2013-03-13 04:10:00,
2013-03-12 23:15:00,30.2,22.6,29.99,WNW,293,3.0,6.1,73,0.00,,,0.00,WUHU216HW,2013-03-13 04:15:00,
2013-03-12 23:20:00,30.2,22.2,29.99,WSW,256,10.0,12.6,72,0.00,,,0.00,WUHU216HW,2013-03-13 04:20:00,
2013-03-12 23:25:00,30.1,22.4,30.00,West,260,7.6,16.1,73,0.00,,,0.00,WUHU216HW,2013-03-13 04:25:00,
2013-03-12 23:30:00,30.1,22.1,30.00,West,275,7.0,16.1,72,0.00,,,0.00,WUHU216HW,2013-03-13 04:30:00,
2013-03-12 23:35:00,29.9,22.0,30.00,West,270,7.8,10.7,72,0.00,,,0.00,WUHU216HW,2013-03-13 04:35:00,
2013-03-12 23:40:00,29.9,22.2,30.00,WNW,293,4.6,10.2,73,0.00,,,0.00,WUHU216HW,2013-03-13 04:40:00,
2013-03-12 23:45:00,29.9,22.0,30.00,WNW,293,7.0,10.2,72,0.00,,,0.00,WUHU216HW,2013-03-13 04:45:00,
2013-03-12 23:50:00,29.9,22.2,30.00,West,273,5.1,10.2,73,0.00,,,0.00,WUHU216HW,2013-03-13 04:50:00,
2013-03-12 23:55:00,29.9,22.2,30.00,WSW,248,7.6,9.1,73,0.00,,,0.00,WUHU216HW,2013-03-13 04:55:00,